Time;durP1;ratioP1;P1;durP2;ratioP2;P2;SDS_P1;SDS_P2;PMS_P1;PMS_P2;Temp;Humidity;BMP_temperature;BMP_pressure;BME280_temperature;BME280_humidity;BME280_pressure;Samples;Min_cycle;Max_cycle;Signal;HPM_P1;HPM_P2
2021/12/25 17:34:23;;;;;;;21.67;13.55;;;;;;;;;;5052588;27;20436;-79
2021/12/25 17:37:09;;;;;;;18.83;11.63;;;;;;;;;;5049521;28;20050;-78
2021/12/25 17:39:54;;;;;;;13.57;7.82;;;;;;;;;;5050149;28;20447;-77
2021/12/25 17:42:43;;;;;;;11.15;7.47;;;;;;;;;;5049735;28;20041;-78
2021/12/25 17:45:28;;;;;;;18.85;10.00;;;;;;;;;;5050782;28;20041;-79
2021/12/25 17:48:14;;;;;;;18.02;10.95;;;;;;;;;;5050151;28;20044;-80
2021/12/25 17:51:01;;;;;;;12.38;7.15;;;;;;;;;;5050514;28;20367;-78
2021/12/25 17:53:46;;;;;;;17.35;10.13;;;;;;;;;;5049789;28;20053;-81
2021/12/25 17:56:31;;;;;;;16.35;9.80;;;;;;;;;;5049915;28;20045;-81
2021/12/25 17:59:17;;;;;;;26.40;15.90;;;;;;;;;;5050809;28;20049;-81
2021/12/25 18:02:05;;;;;;;15.57;9.65;;;;;;;;;;5049868;28;20049;-80
2021/12/25 18:04:51;;;;;;;10.23;6.38;;;;;;;;;;5050365;28;20049;-81
2021/12/25 18:07:37;;;;;;;11.52;6.55;;;;;;;;;;5050230;28;20052;-80
2021/12/25 18:10:23;;;;;;;9.05;6.28;;;;;;;;;;5049673;28;20050;-79
2021/12/25 18:13:09;;;;;;;14.02;8.25;;;;;;;;;;5049555;28;20041;-81
2021/12/25 18:15:54;;;;;;;20.15;10.05;;;;;;;;;;5049736;28;20037;-80
2021/12/25 18:18:40;;;;;;;7.72;4.97;;;;;;;;;;5050086;28;20487;-81
2021/12/25 18:21:26;;;;;;;28.08;18.38;;;;;;;;;;5057397;23;20479;-81
2021/12/25 18:24:11;;;;;;;20.30;9.48;;;;;;;;;;5029642;28;20057;-82
2021/12/25 18:26:57;;;;;;;20.63;11.45;;;;;;;;;;5029880;28;20492;-80
2021/12/25 18:29:43;;;;;;;36.08;22.73;;;;;;;;;;5029787;28;20392;-81
2021/12/25 18:32:28;;;;;;;66.00;39.47;;;;;;;;;;5030229;28;20046;-80
2021/12/25 18:35:15;;;;;;;44.92;30.40;;;;;;;;;;5050107;28;20050;-81
2021/12/25 18:38:01;;;;;;;135.68;74.35;;;;;;;;;;5031616;28;20054;-79
2021/12/25 18:40:49;;;;;;;123.45;61.38;;;;;;;;;;5036002;28;20050;-80
2021/12/25 18:43:35;;;;;;;95.82;44.20;;;;;;;;;;5033389;28;20037;-79
2021/12/25 18:46:20;;;;;;;58.05;27.27;;;;;;;;;;5022794;28;20050;-80
2021/12/25 18:49:06;;;;;;;50.38;24.67;;;;;;;;;;5028153;28;20046;-78
2021/12/25 18:51:51;;;;;;;58.60;28.95;;;;;;;;;;5031368;28;20054;-79
2021/12/25 18:54:37;;;;;;;72.75;38.90;;;;;;;;;;5021802;28;20054;-79
2021/12/25 18:57:22;;;;;;;102.28;48.08;;;;;;;;;;5021551;28;20046;-80
2021/12/25 19:00:17;;;;;;;93.47;45.63;;;;;;;;;;5016016;28;20053;-80
2021/12/25 19:03:03;;;;;;;28.67;16.40;;;;;;;;;;5015934;28;20050;-81
2021/12/25 19:05:57;;;;;;;14.75;9.27;;;;;;;;;;5015591;28;20046;-78
2021/12/25 19:08:43;;;;;;;22.95;14.75;;;;;;;;;;5015987;28;20067;-80
2021/12/25 19:11:30;;;;;;;19.02;13.07;;;;;;;;;;5015978;28;20415;-81
2021/12/25 19:14:17;;;;;;;16.40;9.10;;;;;;;;;;5014579;28;20491;-80
2021/12/25 19:17:03;;;;;;;13.80;8.95;;;;;;;;;;5015178;28;20050;-80
2021/12/25 19:19:48;;;;;;;8.82;4.63;;;;;;;;;;5015359;28;20045;-80
2021/12/25 19:22:34;;;;;;;13.60;8.20;;;;;;;;;;5015222;28;20046;-80
2021/12/25 19:25:21;;;;;;;13.82;8.80;;;;;;;;;;5015286;28;20050;-79
2021/12/25 19:28:06;;;;;;;10.23;5.97;;;;;;;;;;5015486;28;20495;-79
2021/12/25 19:30:52;;;;;;;12.32;7.30;;;;;;;;;;5015858;28;20411;-79
2021/12/25 19:33:37;;;;;;;11.77;6.80;;;;;;;;;;5014885;28;20042;-81
2021/12/25 19:36:21;;;;;;;12.35;6.57;;;;;;;;;;5022160;28;20483;-80
2021/12/25 19:39:09;;;;;;;11.52;5.88;;;;;;;;;;5015483;28;20042;-81
2021/12/25 19:41:55;;;;;;;10.50;6.88;;;;;;;;;;5015016;28;20037;-80
2021/12/25 19:44:40;;;;;;;8.90;4.45;;;;;;;;;;5015523;28;20053;-81
2021/12/25 19:47:28;;;;;;;5.18;3.80;;;;;;;;;;5014876;28;20045;-81
2021/12/25 19:50:17;;;;;;;11.70;6.43;;;;;;;;;;5015533;28;20050;-80
2021/12/25 19:53:05;;;;;;;7.07;4.85;;;;;;;;;;5015163;28;20054;-81
2021/12/25 19:55:52;;;;;;;11.75;6.65;;;;;;;;;;5013757;28;20046;-80
2021/12/25 19:58:37;;;;;;;12.50;6.70;;;;;;;;;;5015017;28;20030;-79
2021/12/25 20:01:22;;;;;;;11.40;7.20;;;;;;;;;;5014602;28;20053;-79
2021/12/25 20:04:08;;;;;;;10.73;5.18;;;;;;;;;;5015041;28;20057;-79
2021/12/25 20:06:56;;;;;;;9.60;6.05;;;;;;;;;;5014146;28;20475;-81
2021/12/25 20:09:42;;;;;;;17.10;7.28;;;;;;;;;;5014325;28;20049;-79
2021/12/25 20:12:27;;;;;;;9.30;5.80;;;;;;;;;;5014405;28;20476;-81
2021/12/25 20:15:13;;;;;;;13.18;6.95;;;;;;;;;;5014632;28;20388;-81
2021/12/25 20:17:59;;;;;;;31.55;15.55;;;;;;;;;;5014694;28;20045;-78
2021/12/25 20:20:46;;;;;;;28.63;14.55;;;;;;;;;;5014884;28;20038;-78
2021/12/25 20:23:33;;;;;;;16.08;8.98;;;;;;;;;;5013928;28;20037;-80
2021/12/25 20:26:19;;;;;;;11.57;6.80;;;;;;;;;;5014111;28;20400;-80
2021/12/25 20:29:05;;;;;;;13.68;7.82;;;;;;;;;;5014930;28;20054;-81
2021/12/25 20:31:52;;;;;;;11.93;6.40;;;;;;;;;;5014727;28;20053;-80
2021/12/25 20:34:38;;;;;;;13.95;5.88;;;;;;;;;;5014096;28;20054;-80
2021/12/25 20:37:23;;;;;;;11.15;5.47;;;;;;;;;;5013914;28;20398;-80
2021/12/25 20:40:17;;;;;;;11.57;5.93;;;;;;;;;;5014652;28;20038;-80
2021/12/25 20:43:07;;;;;;;12.07;6.78;;;;;;;;;;5034849;23;20422;-80
2021/12/25 20:45:52;;;;;;;9.00;4.97;;;;;;;;;;5034574;28;20491;-82
2021/12/25 20:48:38;;;;;;;13.18;7.72;;;;;;;;;;5033784;28;20053;-81
2021/12/25 20:51:23;;;;;;;11.88;6.20;;;;;;;;;;5033549;28;20410;-81
2021/12/25 20:54:09;;;;;;;13.23;7.25;;;;;;;;;;5034024;28;20045;-79
2021/12/25 20:56:55;;;;;;;8.25;4.78;;;;;;;;;;5033606;28;20046;-80
2021/12/25 20:59:41;;;;;;;17.35;7.13;;;;;;;;;;5033961;28;20042;-80
2021/12/25 21:02:29;;;;;;;6.78;4.28;;;;;;;;;;5033803;28;20041;-81
2021/12/25 21:05:15;;;;;;;7.65;4.90;;;;;;;;;;5065974;28;20045;-79
2021/12/25 21:08:02;;;;;;;12.05;5.90;;;;;;;;;;5041278;28;20041;-80
2021/12/25 21:10:47;;;;;;;11.02;6.85;;;;;;;;;;5031609;28;20041;-80
2021/12/25 21:13:34;;;;;;;8.00;4.82;;;;;;;;;;5033772;28;20050;-81
2021/12/25 21:16:22;;;;;;;9.40;5.35;;;;;;;;;;5033904;28;20049;-82
2021/12/25 21:19:09;;;;;;;8.88;4.85;;;;;;;;;;5033093;28;20387;-82
2021/12/25 21:21:54;;;;;;;11.68;6.05;;;;;;;;;;5032972;28;20038;-81
2021/12/25 21:24:39;;;;;;;11.20;5.78;;;;;;;;;;5033337;28;20053;-81
2021/12/25 21:27:25;;;;;;;9.57;5.57;;;;;;;;;;5033408;28;20418;-79
2021/12/25 21:30:14;;;;;;;9.98;6.03;;;;;;;;;;5033637;28;20041;-79
2021/12/25 21:33:02;;;;;;;8.32;4.90;;;;;;;;;;5032723;28;20046;-79
2021/12/25 21:35:48;;;;;;;7.25;4.78;;;;;;;;;;5033599;28;20041;-80
2021/12/25 21:38:34;;;;;;;10.80;6.13;;;;;;;;;;5033013;28;20041;-82
2021/12/25 21:41:20;;;;;;;11.45;5.90;;;;;;;;;;5033384;28;20041;-81
2021/12/25 21:44:07;;;;;;;9.88;5.43;;;;;;;;;;4994031;28;20046;-80
2021/12/25 21:46:52;;;;;;;11.40;6.63;;;;;;;;;;4993176;28;20042;-81
2021/12/25 21:49:37;;;;;;;15.82;9.95;;;;;;;;;;4993998;28;20042;-81
2021/12/25 21:52:22;;;;;;;21.58;14.52;;;;;;;;;;4994081;28;20042;-81
2021/12/25 21:55:11;;;;;;;25.15;16.38;;;;;;;;;;4993861;28;20050;-82
2021/12/25 21:57:59;;;;;;;26.75;17.30;;;;;;;;;;4993880;28;20054;-80
2021/12/25 22:00:46;;;;;;;38.83;24.15;;;;;;;;;;5012781;28;20050;-81
2021/12/25 22:03:31;;;;;;;65.43;38.83;;;;;;;;;;4993660;28;20062;-81
2021/12/25 22:06:17;;;;;;;33.70;20.27;;;;;;;;;;4994084;28;20050;-81
2021/12/25 22:09:04;;;;;;;31.50;22.38;;;;;;;;;;4993357;28;20400;-80
2021/12/25 22:11:51;;;;;;;30.85;23.60;;;;;;;;;;4993842;28;20491;-81
2021/12/25 22:14:37;;;;;;;18.35;13.95;;;;;;;;;;4993080;28;20046;-80
2021/12/25 22:17:26;;;;;;;9.48;6.93;;;;;;;;;;5006523;28;20058;-80
2021/12/25 22:20:16;;;;;;;13.52;8.43;;;;;;;;;;4996066;28;20499;-78
2021/12/25 22:23:02;;;;;;;10.23;6.57;;;;;;;;;;4995564;28;20500;-78
2021/12/25 22:25:48;;;;;;;9.27;4.70;;;;;;;;;;4995670;28;20408;-79
2021/12/25 22:28:35;;;;;;;6.93;4.80;;;;;;;;;;4995409;28;20412;-78
2021/12/25 22:31:20;;;;;;;11.00;4.65;;;;;;;;;;4996231;28;20491;-79
2021/12/25 22:34:05;;;;;;;13.93;6.70;;;;;;;;;;4997055;28;20042;-79
2021/12/25 22:36:52;;;;;;;9.27;5.65;;;;;;;;;;4996869;28;20054;-79
2021/12/25 22:39:39;;;;;;;7.40;4.35;;;;;;;;;;4997383;28;20043;-79
2021/12/25 22:42:26;;;;;;;13.27;6.45;;;;;;;;;;5002698;28;20045;-80
2021/12/25 22:45:16;;;;;;;12.05;5.30;;;;;;;;;;5041826;28;20045;-79
2021/12/25 22:48:01;;;;;;;12.82;7.30;;;;;;;;;;5027793;28;20045;-80
2021/12/25 22:50:47;;;;;;;13.57;7.55;;;;;;;;;;5041305;28;20041;-79
2021/12/25 22:53:32;;;;;;;13.80;7.57;;;;;;;;;;5027825;28;20042;-79
2021/12/25 22:56:18;;;;;;;12.60;6.43;;;;;;;;;;5042227;28;20045;-79
2021/12/25 22:59:04;;;;;;;16.27;9.27;;;;;;;;;;5027427;28;20049;-79
2021/12/25 23:01:52;;;;;;;12.70;5.80;;;;;;;;;;5041798;28;20403;-78
2021/12/25 23:04:38;;;;;;;9.63;4.45;;;;;;;;;;5041023;28;20050;-78
2021/12/25 23:07:24;;;;;;;17.25;8.48;;;;;;;;;;5041729;28;20057;-78
2021/12/25 23:10:10;;;;;;;15.57;8.40;;;;;;;;;;5042041;28;20412;-78
2021/12/25 23:12:56;;;;;;;9.95;5.03;;;;;;;;;;5040842;28;20042;-78
2021/12/25 23:15:42;;;;;;;9.68;4.55;;;;;;;;;;5041599;28;20491;-79
2021/12/25 23:18:29;;;;;;;5.68;3.58;;;;;;;;;;5041036;28;20045;-78
2021/12/25 23:21:15;;;;;;;8.93;3.95;;;;;;;;;;5041511;28;20050;-78
2021/12/25 23:24:01;;;;;;;6.85;3.70;;;;;;;;;;5045827;28;20034;-77
2021/12/25 23:26:47;;;;;;;8.73;4.97;;;;;;;;;;5059921;28;20037;-78
2021/12/25 23:29:32;;;;;;;9.07;3.38;;;;;;;;;;5041303;28;20049;-78
2021/12/25 23:32:19;;;;;;;8.10;4.28;;;;;;;;;;5041894;28;20049;-78
2021/12/25 23:35:06;;;;;;;7.53;5.18;;;;;;;;;;5035413;28;20041;-79
2021/12/25 23:37:52;;;;;;;10.98;5.95;;;;;;;;;;5035333;28;20053;-78
2021/12/25 23:40:40;;;;;;;12.75;5.07;;;;;;;;;;5034739;28;20045;-78
2021/12/25 23:43:29;;;;;;;12.18;7.18;;;;;;;;;;5034945;28;20049;-78
2021/12/25 23:46:15;;;;;;;12.93;5.80;;;;;;;;;;5035402;28;20045;-79
2021/12/25 23:49:01;;;;;;;7.05;3.58;;;;;;;;;;5035570;28;20042;-79
2021/12/25 23:51:47;;;;;;;6.25;3.58;;;;;;;;;;5035003;28;20049;-78
2021/12/25 23:54:33;;;;;;;9.15;4.40;;;;;;;;;;5035070;28;20034;-77
2021/12/25 23:57:19;;;;;;;9.38;4.72;;;;;;;;;;5041765;23;20495;-79
